Weather at UNFICYP OP101 Heliport

Public forecast

Using degrees Celsius for public forecast. Weather courtesy of forecast.io.

Closest aviation weather report (METAR) to UNFICYP OP101 Heliport

Closest report is Ercan International Airport, 5.4 nm (10.0 km) N.

2022/12/04 04:20 (retrieved 36 minutes ago)

LCEN 040420Z 27007KT 9999 FEW025 BKN200 11/09 Q1020 NOSIG RMK RWY11 28007KT

Closest aviation forecast (TAF) to UNFICYP OP101 Heliport

Forecast is more than 12 hours old.

Closest forecast is Bassel Al-Assad International Airport, 121.4 nm (224.9 km) E.

2022/12/02 06:36 (retrieved 2 days ago)

TAF TAF OSLK 020400Z 0206/0306 16012KT 9999 FEW030 TEMPO 0218/0306 06010KT